UGTB Airport Information

Runway Information
Runway 13L Length 8202 ft width 196 ft
Elevation 1621 ft Threshold 0 ft Heading 133
Runway 31R Length 8202 ft Width 196 ft
Elevation 1572 ft Threshold 0 ft Heading 313
Runway 13R Length 9843 ft width 147 ft
Elevation 1624 ft Threshold 0 ft Heading 136
Runway 31L Length 9843 ft Width 147 ft
Elevation 1558 ft Threshold 0 ft Heading 316
Airport Frequencies
Type APP Name APP Frequency 127.2 MHZ
Type ATIS Name ATIS Frequency 132.8 MHZ
Type GND Name GND Frequency 119 MHZ
Type TWR Name TWR Frequency 128 MHZ
Airport Navaids
Airport Weather Information & NOTAM
ADDS - METARS form results

(1549 UTC 04 April 2020)
Data provider http://aviationweather.gov/metar/data/
 
METAR text: UGTB 041530Z 33013KT CAVOK 12/05 Q1023 NOSIG
Conditions at: UGTB (TBILISI/NOVO-AL , GE) observed 1530 UTC 04 April 2020
Temperature: 12.0°C (54°F)
Dewpoint: 5.0°C (41°F) [RH = 62%]
Pressure (altimeter): 30.21 inches Hg (1023.0 mb)
Winds: from the NNW (330 degrees) at 15 MPH (13 knots; 6.7 m/s)
Visibility: 6 or more miles (10+ km)
Ceiling: ceiling and visibility are OK
Clouds: unknown
Weather: no significant weather observed at this time

METAR text: UGTB 041500Z 33015KT CAVOK 13/05 Q1022 NOSIG
Conditions at: UGTB (TBILISI/NOVO-AL , GE) observed 1500 UTC 04 April 2020
Temperature: 13.0°C (55°F)
Dewpoint: 5.0°C (41°F) [RH = 58%]
Pressure (altimeter): 30.18 inches Hg (1022.0 mb)
Winds: from the NNW (330 degrees) at 17 MPH (15 knots; 7.7 m/s)
Visibility: 6 or more miles (10+ km)
Ceiling: ceiling and visibility are OK
Clouds: unknown
Weather: no significant weather observed at this time

Forecast for: UGTB (TBILISI/NOVO-AL , GE)
Text: TAF UGTB 041100Z 0412/0512 31027KT 9999 BKN050CB TX16/0512Z TN06/0503Z
Forecast period: 1200 to 1400 UTC 04 April 2020
Forecast type: FROM: standard forecast or significant change
Winds: from the NW (310 degrees) at 31 MPH (27 knots; 13.9 m/s)
Visibility: 6 or more miles 10+ km)
Ceiling: 5000 feet AGL
Clouds: broken clouds at 5000 feet AGL
Weather: no significant weather forecast for this period
Text: BECMG 0414/0416 31012KT SCT055
Forecast period: 1400 to 1700 UTC 04 April 2020
Forecast type: BECOMING: Conditions expected to become as follows by 1600 UTC 04 April 2020
Winds: from the NW (310 degrees) at 14 MPH (12 knots; 6.2 m/s)
Visibility: 6 or more miles 10+ km)
Ceiling: at least 12,000 feet AGL
Clouds: scattered clouds at 5500 feet AGL
Weather: no significant weather forecast for this period
Text: BECMG 0417/0420 03005KT
Forecast period: 1700 UTC 04 April 2020 to 1200 UTC 05 April 2020
Forecast type: BECOMING: Conditions expected to become as follows by 2000 UTC 04 April 2020
Winds: from the NNE (30 degrees) at 6 MPH (5 knots; 2.6 m/s)
Visibility: 6 or more miles 10+ km)
Ceiling: at least 12,000 feet AGL
Clouds: scattered clouds at 5500 feet AGL
Weather: no significant weather forecast for this period